Four Forks, Louisiana
Current Conditions -  °F | °C
As of 6:09 AM on Thursday 29 Jan 2015 (Local Time) from KSHV Reporting Station
Scattered Clouds Scattered Clouds  
Wind Chill: 55°   Ceiling: Unl
Heat Index: 55°   Visibility: 8mi
Dew Point: 53°   Wind: 8mph
Humidity: 93%   Direction: 220°SW
Pressure: 30.12"   Gusts: NA
Location:  32.1652°N, 93.9629°W
Report Text: KSHV 291209Z 22007KT 8SM SCT008 SCT280 13/12 A3012 RMK AO2 T01280117
Loading
Personal Weather Stations






























Interactive Weather Map New forecast layout! Learn more

10-Day Weather Forecast

Advertisements
Track Severe Weather on mobile